sensor_id;sensor_type;location;lat;lon;timestamp;temperature;humidity
19174;DHT22;9719;49.322;8.536;2022-12-18T00:03:03;-4.60;72.20
19174;DHT22;9719;49.322;8.536;2022-12-18T00:08:07;-4.60;72.40
19174;DHT22;9719;49.322;8.536;2022-12-18T00:13:08;-4.60;72.40
19174;DHT22;9719;49.322;8.536;2022-12-18T00:18:10;-4.50;72.50
19174;DHT22;9719;49.322;8.536;2022-12-18T00:23:13;-4.50;72.60
19174;DHT22;9719;49.322;8.536;2022-12-18T00:28:15;-4.50;72.70
19174;DHT22;9719;49.322;8.536;2022-12-18T00:33:17;-4.60;72.70
19174;DHT22;9719;49.322;8.536;2022-12-18T00:38:20;-4.60;72.70
19174;DHT22;9719;49.322;8.536;2022-12-18T00:43:21;-4.60;72.80
19174;DHT22;9719;49.322;8.536;2022-12-18T00:48:23;-4.60;72.70
19174;DHT22;9719;49.322;8.536;2022-12-18T00:53:26;-4.50;72.80
19174;DHT22;9719;49.322;8.536;2022-12-18T00:58:28;-4.50;72.90
19174;DHT22;9719;49.322;8.536;2022-12-18T01:03:29;-4.50;72.90
19174;DHT22;9719;49.322;8.536;2022-12-18T01:08:32;-4.50;73.30
19174;DHT22;9719;49.322;8.536;2022-12-18T01:13:34;-4.50;73.20
19174;DHT22;9719;49.322;8.536;2022-12-18T01:18:36;-4.50;73.30
19174;DHT22;9719;49.322;8.536;2022-12-18T01:23:39;-4.50;73.20
19174;DHT22;9719;49.322;8.536;2022-12-18T01:28:41;-4.50;73.10
19174;DHT22;9719;49.322;8.536;2022-12-18T01:33:44;-4.50;73.10
19174;DHT22;9719;49.322;8.536;2022-12-18T01:38:48;-4.40;73.30
19174;DHT22;9719;49.322;8.536;2022-12-18T01:43:53;-4.40;73.40
19174;DHT22;9719;49.322;8.536;2022-12-18T01:48:57;-4.30;73.60
19174;DHT22;9719;49.322;8.536;2022-12-18T01:54:00;-4.30;74.30
19174;DHT22;9719;49.322;8.536;2022-12-18T01:59:04;-4.30;73.60
19174;DHT22;9719;49.322;8.536;2022-12-18T02:04:20;-4.20;73.50
19174;DHT22;9719;49.322;8.536;2022-12-18T02:09:26;-4.20;73.90
19174;DHT22;9719;49.322;8.536;2022-12-18T02:14:36;-4.20;73.60
19174;DHT22;9719;49.322;8.536;2022-12-18T02:19:46;-4.20;73.60
19174;DHT22;9719;49.322;8.536;2022-12-18T02:24:58;-4.10;73.70
19174;DHT22;9719;49.322;8.536;2022-12-18T02:30:04;-4.10;73.80
19174;DHT22;9719;49.322;8.536;2022-12-18T02:35:09;-4.10;73.80
19174;DHT22;9719;49.322;8.536;2022-12-18T02:40:14;-4.10;73.90
19174;DHT22;9719;49.322;8.536;2022-12-18T02:45:18;-4.10;73.70
19174;DHT22;9719;49.322;8.536;2022-12-18T02:50:30;-4.00;73.80
19174;DHT22;9719;49.322;8.536;2022-12-18T02:55:44;-4.10;73.80
19174;DHT22;9719;49.322;8.536;2022-12-18T03:00:56;-4.10;73.70
19174;DHT22;9719;49.322;8.536;2022-12-18T03:06:03;-4.10;73.60
19174;DHT22;9719;49.322;8.536;2022-12-18T03:11:10;-4.10;73.60
19174;DHT22;9719;49.322;8.536;2022-12-18T03:16:17;-4.10;73.60
19174;DHT22;9719;49.322;8.536;2022-12-18T03:21:27;-4.10;73.80
19174;DHT22;9719;49.322;8.536;2022-12-18T03:26:30;-4.10;73.70
19174;DHT22;9719;49.322;8.536;2022-12-18T03:31:35;-4.20;73.40
19174;DHT22;9719;49.322;8.536;2022-12-18T03:36:39;-4.30;73.50
19174;DHT22;9719;49.322;8.536;2022-12-18T03:41:47;-4.40;73.50
19174;DHT22;9719;49.322;8.536;2022-12-18T03:46:58;-4.40;73.30
19174;DHT22;9719;49.322;8.536;2022-12-18T03:52:04;-4.60;72.90
19174;DHT22;9719;49.322;8.536;2022-12-18T03:57:11;-4.70;73.30
19174;DHT22;9719;49.322;8.536;2022-12-18T04:02:17;-4.80;73.70
19174;DHT22;9719;49.322;8.536;2022-12-18T04:07:19;-4.90;73.90
19174;DHT22;9719;49.322;8.536;2022-12-18T04:12:24;-4.90;74.00
19174;DHT22;9719;49.322;8.536;2022-12-18T04:17:27;-4.90;74.00
19174;DHT22;9719;49.322;8.536;2022-12-18T04:22:29;-5.00;73.50
19174;DHT22;9719;49.322;8.536;2022-12-18T04:27:31;-5.10;73.30
19174;DHT22;9719;49.322;8.536;2022-12-18T04:32:34;-5.30;73.30
19174;DHT22;9719;49.322;8.536;2022-12-18T04:37:36;-5.50;73.50
19174;DHT22;9719;49.322;8.536;2022-12-18T04:42:39;-5.70;73.40
19174;DHT22;9719;49.322;8.536;2022-12-18T04:47:42;-5.90;73.50
19174;DHT22;9719;49.322;8.536;2022-12-18T04:52:44;-6.10;73.30
19174;DHT22;9719;49.322;8.536;2022-12-18T04:57:45;-6.40;73.10
19174;DHT22;9719;49.322;8.536;2022-12-18T05:02:48;-6.60;72.90
19174;DHT22;9719;49.322;8.536;2022-12-18T05:07:50;-6.90;73.30
19174;DHT22;9719;49.322;8.536;2022-12-18T05:12:52;-7.00;73.70
19174;DHT22;9719;49.322;8.536;2022-12-18T05:18:01;-7.20;73.90
19174;DHT22;9719;49.322;8.536;2022-12-18T05:23:03;-7.40;73.70
19174;DHT22;9719;49.322;8.536;2022-12-18T05:28:05;-7.60;73.30
19174;DHT22;9719;49.322;8.536;2022-12-18T05:33:08;-7.70;73.30
19174;DHT22;9719;49.322;8.536;2022-12-18T05:38:09;-7.90;73.20
19174;DHT22;9719;49.322;8.536;2022-12-18T05:43:11;-8.00;74.00
19174;DHT22;9719;49.322;8.536;2022-12-18T05:48:15;-8.10;74.10
19174;DHT22;9719;49.322;8.536;2022-12-18T05:53:19;-8.20;75.10
19174;DHT22;9719;49.322;8.536;2022-12-18T05:58:21;-8.10;75.10
19174;DHT22;9719;49.322;8.536;2022-12-18T06:03:24;-8.20;74.60
19174;DHT22;9719;49.322;8.536;2022-12-18T06:08:26;-8.20;74.80
19174;DHT22;9719;49.322;8.536;2022-12-18T06:13:28;-8.30;74.30
19174;DHT22;9719;49.322;8.536;2022-12-18T06:18:31;-8.30;74.10
19174;DHT22;9719;49.322;8.536;2022-12-18T06:23:32;-8.40;74.00
19174;DHT22;9719;49.322;8.536;2022-12-18T06:28:34;-8.50;74.30
19174;DHT22;9719;49.322;8.536;2022-12-18T06:33:38;-8.50;74.30
19174;DHT22;9719;49.322;8.536;2022-12-18T06:38:42;-8.60;73.80
19174;DHT22;9719;49.322;8.536;2022-12-18T06:43:44;-8.70;74.10
19174;DHT22;9719;49.322;8.536;2022-12-18T06:48:50;-8.70;75.10
19174;DHT22;9719;49.322;8.536;2022-12-18T06:53:52;-8.70;75.30
19174;DHT22;9719;49.322;8.536;2022-12-18T06:58:53;-8.60;76.00
19174;DHT22;9719;49.322;8.536;2022-12-18T07:03:57;-8.30;77.50
19174;DHT22;9719;49.322;8.536;2022-12-18T07:08:59;-7.90;78.90
19174;DHT22;9719;49.322;8.536;2022-12-18T07:14:00;-7.60;77.70
19174;DHT22;9719;49.322;8.536;2022-12-18T07:19:03;-7.30;78.20
19174;DHT22;9719;49.322;8.536;2022-12-18T07:24:06;-7.00;78.40
19174;DHT22;9719;49.322;8.536;2022-12-18T07:29:08;-6.80;78.30
19174;DHT22;9719;49.322;8.536;2022-12-18T07:34:11;-6.60;78.00
19174;DHT22;9719;49.322;8.536;2022-12-18T07:39:13;-6.40;77.90
19174;DHT22;9719;49.322;8.536;2022-12-18T07:44:15;-6.20;78.50
19174;DHT22;9719;49.322;8.536;2022-12-18T07:49:18;-6.00;77.80
19174;DHT22;9719;49.322;8.536;2022-12-18T07:54:20;-5.90;77.50
19174;DHT22;9719;49.322;8.536;2022-12-18T07:59:22;-5.70;77.30
19174;DHT22;9719;49.322;8.536;2022-12-18T08:04:25;-5.60;77.00
19174;DHT22;9719;49.322;8.536;2022-12-18T08:09:26;-5.40;77.00
19174;DHT22;9719;49.322;8.536;2022-12-18T08:14:28;-5.30;76.50
19174;DHT22;9719;49.322;8.536;2022-12-18T08:19:31;-5.20;76.50
19174;DHT22;9719;49.322;8.536;2022-12-18T08:24:33;-5.00;76.40
19174;DHT22;9719;49.322;8.536;2022-12-18T08:29:35;-4.80;76.10
19174;DHT22;9719;49.322;8.536;2022-12-18T08:34:38;-4.70;75.70
19174;DHT22;9719;49.322;8.536;2022-12-18T08:39:39;-4.50;75.30
19174;DHT22;9719;49.322;8.536;2022-12-18T08:44:41;-4.40;75.30
19174;DHT22;9719;49.322;8.536;2022-12-18T08:49:44;-4.20;75.30
19174;DHT22;9719;49.322;8.536;2022-12-18T08:54:46;-4.00;75.10
19174;DHT22;9719;49.322;8.536;2022-12-18T08:59:49;-3.90;74.50
19174;DHT22;9719;49.322;8.536;2022-12-18T09:04:52;-3.70;74.50
19174;DHT22;9719;49.322;8.536;2022-12-18T09:09:53;-3.50;74.40
19174;DHT22;9719;49.322;8.536;2022-12-18T09:14:55;-3.30;73.90
19174;DHT22;9719;49.322;8.536;2022-12-18T09:19:59;-3.00;73.70
19174;DHT22;9719;49.322;8.536;2022-12-18T09:25:00;-2.80;73.50
19174;DHT22;9719;49.322;8.536;2022-12-18T09:30:03;-2.60;72.80
19174;DHT22;9719;49.322;8.536;2022-12-18T09:35:07;-2.60;72.60
19174;DHT22;9719;49.322;8.536;2022-12-18T09:40:13;-2.40;72.60
19174;DHT22;9719;49.322;8.536;2022-12-18T09:45:16;-2.30;72.30
19174;DHT22;9719;49.322;8.536;2022-12-18T09:50:24;-2.10;71.90
19174;DHT22;9719;49.322;8.536;2022-12-18T09:55:30;-1.90;71.70
19174;DHT22;9719;49.322;8.536;2022-12-18T10:00:35;-1.80;71.10
19174;DHT22;9719;49.322;8.536;2022-12-18T10:05:42;-1.70;70.60
19174;DHT22;9719;49.322;8.536;2022-12-18T10:10:48;-1.50;70.80
19174;DHT22;9719;49.322;8.536;2022-12-18T10:15:58;-1.30;70.20
19174;DHT22;9719;49.322;8.536;2022-12-18T10:21:08;-1.10;69.70
19174;DHT22;9719;49.322;8.536;2022-12-18T10:26:12;-0.80;69.20
19174;DHT22;9719;49.322;8.536;2022-12-18T10:31:16;-0.50;68.70
19174;DHT22;9719;49.322;8.536;2022-12-18T10:36:20;-0.20;68.20
19174;DHT22;9719;49.322;8.536;2022-12-18T10:41:26;0.20;67.80
19174;DHT22;9719;49.322;8.536;2022-12-18T10:46:27;0.60;67.20
19174;DHT22;9719;49.322;8.536;2022-12-18T10:51:32;0.90;66.20
19174;DHT22;9719;49.322;8.536;2022-12-18T10:56:36;1.20;65.70
19174;DHT22;9719;49.322;8.536;2022-12-18T11:01:49;1.40;65.00
19174;DHT22;9719;49.322;8.536;2022-12-18T11:06:58;1.40;64.30
19174;DHT22;9719;49.322;8.536;2022-12-18T11:12:02;1.50;64.20
19174;DHT22;9719;49.322;8.536;2022-12-18T11:17:18;1.60;64.00
19174;DHT22;9719;49.322;8.536;2022-12-18T11:22:23;1.90;63.20
19174;DHT22;9719;49.322;8.536;2022-12-18T11:27:27;2.30;63.80
19174;DHT22;9719;49.322;8.536;2022-12-18T11:32:34;2.80;62.80
19174;DHT22;9719;49.322;8.536;2022-12-18T11:37:39;3.40;61.90
19174;DHT22;9719;49.322;8.536;2022-12-18T11:42:45;4.20;61.30
19174;DHT22;9719;49.322;8.536;2022-12-18T11:47:54;5.30;59.30
19174;DHT22;9719;49.322;8.536;2022-12-18T11:52:59;6.10;59.00
19174;DHT22;9719;49.322;8.536;2022-12-18T11:58:08;6.70;57.20
19174;DHT22;9719;49.322;8.536;2022-12-18T12:03:36;6.90;55.20
19174;DHT22;9719;49.322;8.536;2022-12-18T12:08:54;7.30;56.00
19174;DHT22;9719;49.322;8.536;2022-12-18T12:19:44;8.10;54.60
19174;DHT22;9719;49.322;8.536;2022-12-18T12:24:59;8.20;53.20
19174;DHT22;9719;49.322;8.536;2022-12-18T12:30:20;7.80;52.70
19174;DHT22;9719;49.322;8.536;2022-12-18T12:35:30;7.50;51.60
19174;DHT22;9719;49.322;8.536;2022-12-18T12:40:37;7.50;52.60
19174;DHT22;9719;49.322;8.536;2022-12-18T12:45:49;7.40;52.70
19174;DHT22;9719;49.322;8.536;2022-12-18T12:50:53;7.20;52.00
19174;DHT22;9719;49.322;8.536;2022-12-18T12:55:58;6.80;52.00
19174;DHT22;9719;49.322;8.536;2022-12-18T13:01:08;6.50;52.30
19174;DHT22;9719;49.322;8.536;2022-12-18T13:06:16;6.40;52.80
19174;DHT22;9719;49.322;8.536;2022-12-18T13:11:35;6.30;53.00
19174;DHT22;9719;49.322;8.536;2022-12-18T13:17:14;6.10;52.60
19174;DHT22;9719;49.322;8.536;2022-12-18T13:22:21;5.80;53.20
19174;DHT22;9719;49.322;8.536;2022-12-18T13:33:37;5.10;52.80
19174;DHT22;9719;49.322;8.536;2022-12-18T13:38:40;4.80;54.50
19174;DHT22;9719;49.322;8.536;2022-12-18T13:43:45;4.50;55.10
19174;DHT22;9719;49.322;8.536;2022-12-18T13:48:53;4.20;55.10
19174;DHT22;9719;49.322;8.536;2022-12-18T13:53:58;3.90;55.80
19174;DHT22;9719;49.322;8.536;2022-12-18T13:59:18;3.50;56.10
19174;DHT22;9719;49.322;8.536;2022-12-18T14:04:23;3.20;56.80
19174;DHT22;9719;49.322;8.536;2022-12-18T14:09:28;2.90;57.30
19174;DHT22;9719;49.322;8.536;2022-12-18T14:14:33;2.70;57.60
19174;DHT22;9719;49.322;8.536;2022-12-18T14:19:35;2.50;58.30
19174;DHT22;9719;49.322;8.536;2022-12-18T14:24:37;2.30;58.30
19174;DHT22;9719;49.322;8.536;2022-12-18T14:29:43;2.10;58.80
19174;DHT22;9719;49.322;8.536;2022-12-18T14:34:47;1.90;59.40
19174;DHT22;9719;49.322;8.536;2022-12-18T14:39:55;1.70;59.50
19174;DHT22;9719;49.322;8.536;2022-12-18T14:45:37;1.40;60.00
19174;DHT22;9719;49.322;8.536;2022-12-18T14:50:39;1.20;60.70
19174;DHT22;9719;49.322;8.536;2022-12-18T14:55:45;0.90;60.60
19174;DHT22;9719;49.322;8.536;2022-12-18T15:00:49;0.70;61.60
19174;DHT22;9719;49.322;8.536;2022-12-18T15:05:51;0.50;62.60
19174;DHT22;9719;49.322;8.536;2022-12-18T15:10:53;0.30;62.10
19174;DHT22;9719;49.322;8.536;2022-12-18T15:15:57;0.10;62.50
19174;DHT22;9719;49.322;8.536;2022-12-18T15:21:09;-0.10;63.10
19174;DHT22;9719;49.322;8.536;2022-12-18T15:26:12;-0.30;64.00
19174;DHT22;9719;49.322;8.536;2022-12-18T15:31:28;-0.40;64.00
19174;DHT22;9719;49.322;8.536;2022-12-18T15:36:30;-0.60;64.50
19174;DHT22;9719;49.322;8.536;2022-12-18T15:41:33;-0.70;64.80
19174;DHT22;9719;49.322;8.536;2022-12-18T15:46:36;-0.80;65.70
19174;DHT22;9719;49.322;8.536;2022-12-18T15:51:38;-0.90;66.10
19174;DHT22;9719;49.322;8.536;2022-12-18T15:56:40;-0.90;66.30
19174;DHT22;9719;49.322;8.536;2022-12-18T16:02:01;-0.90;66.30
19174;DHT22;9719;49.322;8.536;2022-12-18T16:07:02;-0.90;67.00
19174;DHT22;9719;49.322;8.536;2022-12-18T16:12:05;-0.80;67.20
19174;DHT22;9719;49.322;8.536;2022-12-18T16:17:11;-0.70;67.50
19174;DHT22;9719;49.322;8.536;2022-12-18T16:22:18;-0.60;67.80
19174;DHT22;9719;49.322;8.536;2022-12-18T16:27:22;-0.60;67.40
19174;DHT22;9719;49.322;8.536;2022-12-18T16:32:25;-0.50;68.00
19174;DHT22;9719;49.322;8.536;2022-12-18T16:37:27;-0.50;68.20
19174;DHT22;9719;49.322;8.536;2022-12-18T16:42:29;-0.40;68.70
19174;DHT22;9719;49.322;8.536;2022-12-18T16:47:32;-0.40;68.80
19174;DHT22;9719;49.322;8.536;2022-12-18T16:52:34;-0.30;68.60
19174;DHT22;9719;49.322;8.536;2022-12-18T16:57:36;-0.30;68.80
19174;DHT22;9719;49.322;8.536;2022-12-18T17:02:39;-0.20;69.10
19174;DHT22;9719;49.322;8.536;2022-12-18T17:07:40;-0.20;68.90
19174;DHT22;9719;49.322;8.536;2022-12-18T17:12:42;-0.20;68.90
19174;DHT22;9719;49.322;8.536;2022-12-18T17:17:45;-0.30;69.10
19174;DHT22;9719;49.322;8.536;2022-12-18T17:22:47;-0.30;69.30
19174;DHT22;9719;49.322;8.536;2022-12-18T17:27:49;-0.40;69.20
19174;DHT22;9719;49.322;8.536;2022-12-18T17:32:52;-0.40;69.60
19174;DHT22;9719;49.322;8.536;2022-12-18T17:37:54;-0.50;70.20
19174;DHT22;9719;49.322;8.536;2022-12-18T17:42:55;-0.50;70.20
19174;DHT22;9719;49.322;8.536;2022-12-18T17:47:58;-0.60;70.00
19174;DHT22;9719;49.322;8.536;2022-12-18T17:53:00;-0.50;70.80
19174;DHT22;9719;49.322;8.536;2022-12-18T17:58:03;-0.50;70.50
19174;DHT22;9719;49.322;8.536;2022-12-18T18:03:06;-0.40;70.70
19174;DHT22;9719;49.322;8.536;2022-12-18T18:08:08;-0.40;71.00
19174;DHT22;9719;49.322;8.536;2022-12-18T18:13:17;-0.40;71.00
19174;DHT22;9719;49.322;8.536;2022-12-18T18:18:38;-0.30;71.00
19174;DHT22;9719;49.322;8.536;2022-12-18T18:23:40;-0.40;70.80
19174;DHT22;9719;49.322;8.536;2022-12-18T18:28:42;-0.40;71.50
19174;DHT22;9719;49.322;8.536;2022-12-18T18:33:45;-0.50;71.00
19174;DHT22;9719;49.322;8.536;2022-12-18T18:38:46;-0.50;70.90
19174;DHT22;9719;49.322;8.536;2022-12-18T18:43:48;-0.50;71.10
19174;DHT22;9719;49.322;8.536;2022-12-18T18:48:55;-0.50;71.40
19174;DHT22;9719;49.322;8.536;2022-12-18T18:53:57;-0.40;71.30
19174;DHT22;9719;49.322;8.536;2022-12-18T18:59:00;-0.30;71.30
19174;DHT22;9719;49.322;8.536;2022-12-18T19:04:03;-0.20;71.40
19174;DHT22;9719;49.322;8.536;2022-12-18T19:09:06;-0.10;71.20
19174;DHT22;9719;49.322;8.536;2022-12-18T19:14:09;-0.20;71.50
19174;DHT22;9719;49.322;8.536;2022-12-18T19:19:13;-0.10;71.30
19174;DHT22;9719;49.322;8.536;2022-12-18T19:24:16;-0.10;71.30
19174;DHT22;9719;49.322;8.536;2022-12-18T19:29:18;-0.10;71.50
19174;DHT22;9719;49.322;8.536;2022-12-18T19:34:21;0.00;71.20
19174;DHT22;9719;49.322;8.536;2022-12-18T19:39:23;0.00;71.00
19174;DHT22;9719;49.322;8.536;2022-12-18T19:44:25;0.10;71.20
19174;DHT22;9719;49.322;8.536;2022-12-18T19:49:28;0.00;71.00
19174;DHT22;9719;49.322;8.536;2022-12-18T19:54:31;0.10;71.20
19174;DHT22;9719;49.322;8.536;2022-12-18T19:59:33;0.20;71.20
19174;DHT22;9719;49.322;8.536;2022-12-18T20:04:36;0.20;71.10
19174;DHT22;9719;49.322;8.536;2022-12-18T20:09:38;0.20;71.20
19174;DHT22;9719;49.322;8.536;2022-12-18T20:14:39;0.10;71.00
19174;DHT22;9719;49.322;8.536;2022-12-18T20:19:42;0.10;71.20
19174;DHT22;9719;49.322;8.536;2022-12-18T20:24:44;0.10;71.20
19174;DHT22;9719;49.322;8.536;2022-12-18T20:29:46;0.10;71.30
19174;DHT22;9719;49.322;8.536;2022-12-18T20:34:49;0.10;71.20
19174;DHT22;9719;49.322;8.536;2022-12-18T20:39:51;0.10;71.30
19174;DHT22;9719;49.322;8.536;2022-12-18T20:44:52;0.10;71.40
19174;DHT22;9719;49.322;8.536;2022-12-18T20:49:55;0.10;71.40
19174;DHT22;9719;49.322;8.536;2022-12-18T20:54:57;0.00;71.20
19174;DHT22;9719;49.322;8.536;2022-12-18T20:59:59;-0.10;71.30
19174;DHT22;9719;49.322;8.536;2022-12-18T21:05:02;-0.10;71.60
19174;DHT22;9719;49.322;8.536;2022-12-18T21:10:04;0.00;71.70
19174;DHT22;9719;49.322;8.536;2022-12-18T21:15:08;-0.10;71.40
19174;DHT22;9719;49.322;8.536;2022-12-18T21:20:11;0.00;71.70
19174;DHT22;9719;49.322;8.536;2022-12-18T21:25:13;0.00;71.90
19174;DHT22;9719;49.322;8.536;2022-12-18T21:30:15;0.00;71.80
19174;DHT22;9719;49.322;8.536;2022-12-18T21:35:18;0.00;71.60
19174;DHT22;9719;49.322;8.536;2022-12-18T21:40:20;0.10;71.70
19174;DHT22;9719;49.322;8.536;2022-12-18T21:45:22;0.20;71.70
19174;DHT22;9719;49.322;8.536;2022-12-18T21:50:25;0.20;71.50
19174;DHT22;9719;49.322;8.536;2022-12-18T21:55:26;0.20;71.50
19174;DHT22;9719;49.322;8.536;2022-12-18T22:00:28;0.20;71.60
19174;DHT22;9719;49.322;8.536;2022-12-18T22:05:31;0.20;71.70
19174;DHT22;9719;49.322;8.536;2022-12-18T22:10:33;0.20;71.30
19174;DHT22;9719;49.322;8.536;2022-12-18T22:15:34;0.20;71.70
19174;DHT22;9719;49.322;8.536;2022-12-18T22:20:38;0.20;71.70
19174;DHT22;9719;49.322;8.536;2022-12-18T22:25:39;0.20;71.80
19174;DHT22;9719;49.322;8.536;2022-12-18T22:30:41;0.30;71.90
19174;DHT22;9719;49.322;8.536;2022-12-18T22:35:44;0.30;71.40
19174;DHT22;9719;49.322;8.536;2022-12-18T22:40:46;0.40;71.40
19174;DHT22;9719;49.322;8.536;2022-12-18T22:45:47;0.40;71.30
19174;DHT22;9719;49.322;8.536;2022-12-18T22:50:50;0.40;71.70
19174;DHT22;9719;49.322;8.536;2022-12-18T22:55:59;0.50;71.70
19174;DHT22;9719;49.322;8.536;2022-12-18T23:01:01;0.50;71.60
19174;DHT22;9719;49.322;8.536;2022-12-18T23:06:05;0.50;71.50
19174;DHT22;9719;49.322;8.536;2022-12-18T23:11:08;0.50;71.70
19174;DHT22;9719;49.322;8.536;2022-12-18T23:16:12;0.50;71.30
19174;DHT22;9719;49.322;8.536;2022-12-18T23:21:17;0.50;71.50
19174;DHT22;9719;49.322;8.536;2022-12-18T23:26:20;0.50;71.70
19174;DHT22;9719;49.322;8.536;2022-12-18T23:31:24;0.50;71.50
19174;DHT22;9719;49.322;8.536;2022-12-18T23:36:28;0.60;71.60
19174;DHT22;9719;49.322;8.536;2022-12-18T23:41:31;0.60;71.50
19174;DHT22;9719;49.322;8.536;2022-12-18T23:46:33;0.60;71.30
19174;DHT22;9719;49.322;8.536;2022-12-18T23:51:38;0.60;71.50
19174;DHT22;9719;49.322;8.536;2022-12-18T23:56:39;0.60;71.60
